createdAt,value
2019-01-12T00:00:45.835Z,59.72
2019-01-12T00:03:17.938Z,59.59
2019-01-12T00:05:48.735Z,59.22
2019-01-12T00:08:19.160Z,59.67
2019-01-12T00:10:49.453Z,59.56
2019-01-12T00:13:20.655Z,58.74
2019-01-12T00:15:51.470Z,59.41
2019-01-12T00:18:21.736Z,59.67
2019-01-12T00:20:52.144Z,59.36
2019-01-12T00:23:22.443Z,58.17
2019-01-12T00:25:53.252Z,58.17
2019-01-12T00:28:23.638Z,57.95
2019-01-12T00:30:55.191Z,59.35
2019-01-12T00:33:25.468Z,58.70
2019-01-12T00:35:56.358Z,58.63
2019-01-12T00:38:26.630Z,58.19
2019-01-12T00:40:56.968Z,58.44
2019-01-12T00:43:27.264Z,59.56
2019-01-12T00:45:58.888Z,58.83
2019-01-12T00:48:29.175Z,58.06
2019-01-12T00:50:59.531Z,57.63
2019-01-12T00:53:29.839Z,57.17
2019-01-12T00:56:00.583Z,57.34
2019-01-12T00:58:30.926Z,56.85
2019-01-12T01:01:02.279Z,56.91
2019-01-12T01:03:33.418Z,56.11
2019-01-12T01:06:04.121Z,56.11
2019-01-12T01:08:34.450Z,55.68
2019-01-12T01:11:05.054Z,55.80
2019-01-12T01:13:35.358Z,56.37
2019-01-12T01:16:06.277Z,55.85
2019-01-12T01:18:36.551Z,55.38
2019-01-12T01:21:07.476Z,55.82
2019-01-12T01:23:37.785Z,56.17
2019-01-12T01:26:08.075Z,56.10
2019-01-12T01:28:38.464Z,55.74
2019-01-12T01:31:09.174Z,55.66
2019-01-12T01:33:39.486Z,55.81
2019-01-12T01:36:11.771Z,55.87
2019-01-12T01:38:42.053Z,56.59
2019-01-12T01:41:12.322Z,55.70
2019-01-12T01:43:43.450Z,55.59
2019-01-12T01:46:14.260Z,55.56
2019-01-12T01:48:44.529Z,55.22
2019-01-12T01:51:16.480Z,56.18
2019-01-12T01:53:46.776Z,55.56
2019-01-12T01:56:17.063Z,55.55
2019-01-12T01:58:47.374Z,56.23
2019-01-12T02:01:19.382Z,55.72
2019-01-12T02:03:49.711Z,57.38
2019-01-12T02:06:19.984Z,56.15
2019-01-12T02:08:51.620Z,55.73
2019-01-12T02:11:22.337Z,55.28
2019-01-12T02:13:52.991Z,55.32
2019-01-12T02:16:23.315Z,55.55
2019-01-12T02:18:53.590Z,56.30
2019-01-12T02:21:24.456Z,55.83
2019-01-12T02:23:54.729Z,54.88
2019-01-12T02:26:26.265Z,54.64
2019-01-12T02:28:56.637Z,55.43
2019-01-12T02:31:27.534Z,55.93
2019-01-12T02:33:57.832Z,55.61
2019-01-12T02:36:28.256Z,55.22
2019-01-12T02:38:58.677Z,54.66
2019-01-12T02:41:30.358Z,55.37
2019-01-12T02:44:00.712Z,54.85
2019-01-12T02:46:31.021Z,55.59
2019-01-12T02:49:01.295Z,56.33
2019-01-12T02:51:32.121Z,55.80
2019-01-12T02:54:02.459Z,55.67
2019-01-12T02:56:34.270Z,55.80
2019-01-12T02:59:04.666Z,55.52
2019-01-12T03:01:37.005Z,55.81
2019-01-12T03:04:07.373Z,55.52
2019-01-12T03:06:37.640Z,55.93
2019-01-12T03:09:09.389Z,55.96
2019-01-12T03:11:40.185Z,55.92
2019-01-12T03:14:11.573Z,55.84
2019-01-12T03:16:41.851Z,55.54
2019-01-12T03:19:12.504Z,55.25
2019-01-12T03:21:44.517Z,55.37
2019-01-12T03:24:15.510Z,55.59
2019-01-12T03:26:45.813Z,56.16
2019-01-12T03:29:17.617Z,55.67
2019-01-12T03:31:47.904Z,55.34
2019-01-12T03:34:18.179Z,55.75
2019-01-12T03:36:48.494Z,55.42
2019-01-12T03:39:19.234Z,55.39
2019-01-12T03:41:49.533Z,54.98
2019-01-12T03:44:21.213Z,54.56
2019-01-12T03:46:51.476Z,54.94
2019-01-12T03:49:21.768Z,54.49
2019-01-12T03:51:52.132Z,54.65
2019-01-12T03:54:22.882Z,54.63
2019-01-12T03:56:53.170Z,54.34
2019-01-12T03:59:24.026Z,54.77
2019-01-12T04:01:55.946Z,54.72
2019-01-12T04:04:26.258Z,55.87
2019-01-12T04:06:57.032Z,55.32
2019-01-12T04:09:27.753Z,56.40
2019-01-12T04:11:58.112Z,56.70
2019-01-12T04:14:29.262Z,55.13
2019-01-12T04:17:00.058Z,54.98
2019-01-12T04:19:30.333Z,54.85
2019-01-12T04:22:00.747Z,54.66
2019-01-12T04:24:31.036Z,54.33
2019-01-12T04:27:01.304Z,54.05
2019-01-12T04:29:32.917Z,53.79
2019-01-12T04:32:03.674Z,54.16
2019-01-12T04:34:33.956Z,54.17
2019-01-12T04:37:04.238Z,53.98
2019-01-12T04:39:34.500Z,53.67
2019-01-12T04:42:04.795Z,53.70
2019-01-12T04:44:35.792Z,53.79
2019-01-12T04:47:06.679Z,53.45
2019-01-12T04:49:36.963Z,53.29
2019-01-12T04:52:07.345Z,53.60
2019-01-12T04:54:37.610Z,52.90
2019-01-12T04:57:07.894Z,53.60
2019-01-12T04:59:39.294Z,52.89
2019-01-12T05:02:11.448Z,52.84
2019-01-12T05:04:41.773Z,53.37
2019-01-12T05:07:12.053Z,52.65
2019-01-12T05:09:42.382Z,52.98
2019-01-12T05:12:13.168Z,53.50
2019-01-12T05:14:44.757Z,53.21
2019-01-12T05:17:16.078Z,53.29
2019-01-12T05:19:46.352Z,53.35
2019-01-12T05:22:17.185Z,53.07
2019-01-12T05:24:47.480Z,52.88
2019-01-12T05:27:17.830Z,53.40
2019-01-12T05:29:48.113Z,53.45
2019-01-12T05:32:20.279Z,53.81
2019-01-12T05:34:50.560Z,54.16
2019-01-12T05:37:20.870Z,54.15
2019-01-12T05:39:51.150Z,54.41
2019-01-12T05:42:22.408Z,54.76
2019-01-12T05:44:52.751Z,54.07
2019-01-12T05:47:24.388Z,53.81
2019-01-12T05:49:55.552Z,53.46
2019-01-12T05:52:26.472Z,54.14
2019-01-12T05:54:56.745Z,53.99
2019-01-12T05:57:27.057Z,54.14
2019-01-12T05:59:57.322Z,54.87
2019-01-12T06:02:30.029Z,54.70
2019-01-12T06:05:00.299Z,54.45
2019-01-12T06:07:30.600Z,54.01
2019-01-12T06:10:00.902Z,53.07
2019-01-12T06:12:31.721Z,53.29
2019-01-12T06:15:02.008Z,53.67
2019-01-12T06:17:32.271Z,53.88
2019-01-12T06:20:02.617Z,52.81
2019-01-12T06:22:34.480Z,52.62
2019-01-12T06:25:05.526Z,52.36
2019-01-12T06:27:35.869Z,52.39
2019-01-12T06:30:08.912Z,52.35
2019-01-12T06:32:39.875Z,51.60
2019-01-12T06:35:10.459Z,51.68
2019-01-12T06:37:40.739Z,52.25
2019-01-12T06:40:14.854Z,51.83
2019-01-12T06:42:45.691Z,51.44
2019-01-12T06:45:16.590Z,51.29
2019-01-12T06:47:46.856Z,51.12
2019-01-12T06:50:18.687Z,50.78
2019-01-12T06:52:49.038Z,50.70
2019-01-12T06:55:19.760Z,50.70
2019-01-12T06:57:50.024Z,50.57
2019-01-12T07:00:21.357Z,51.01
2019-01-12T07:02:52.924Z,51.19
2019-01-12T07:05:23.267Z,51.10
2019-01-12T07:07:54.042Z,51.44
2019-01-12T07:10:24.330Z,52.08
2019-01-12T07:12:54.620Z,51.62
2019-01-12T07:15:25.457Z,51.88
2019-01-12T07:17:56.289Z,52.14
2019-01-12T07:20:26.580Z,52.11
2019-01-12T07:22:56.864Z,53.24
2019-01-12T07:25:27.142Z,52.55
2019-01-12T07:27:57.413Z,52.34
2019-01-12T07:30:28.851Z,52.45
2019-01-12T07:32:59.623Z,53.26
2019-01-12T07:35:29.886Z,52.17
2019-01-12T07:38:00.188Z,51.19
2019-01-12T07:40:30.464Z,51.08
2019-01-12T07:43:00.759Z,51.32
2019-01-12T07:45:32.439Z,51.53
2019-01-12T07:48:03.353Z,53.18
2019-01-12T07:50:33.626Z,51.57
2019-01-12T07:53:04.068Z,51.15
2019-01-12T07:55:34.362Z,51.32
2019-01-12T07:58:04.748Z,50.57
2019-01-12T08:00:36.445Z,49.99
2019-01-12T08:03:07.896Z,52.02
2019-01-12T08:05:38.193Z,53.04
2019-01-12T08:08:08.465Z,51.61
2019-01-12T08:10:39.283Z,51.51
2019-01-12T08:13:10.329Z,54.64
2019-01-12T08:15:41.678Z,55.61
2019-01-12T08:18:11.959Z,55.80
2019-01-12T08:20:42.231Z,54.81
2019-01-12T08:23:12.534Z,55.74
2019-01-12T08:25:43.375Z,58.00
2019-01-12T08:28:13.639Z,57.62
2019-01-12T08:30:44.965Z,56.97
2019-01-12T08:33:15.241Z,56.53
2019-01-12T08:35:45.521Z,58.79
2019-01-12T08:38:15.837Z,57.79
2019-01-12T08:40:46.681Z,58.48
2019-01-12T08:43:16.981Z,56.73
2019-01-12T08:45:48.510Z,56.02
2019-01-12T08:48:20.029Z,56.86
2019-01-12T08:50:50.692Z,57.26
2019-01-12T08:53:21.092Z,56.49
2019-01-12T08:55:51.906Z,56.10
2019-01-12T08:58:22.188Z,56.75
2019-01-12T09:00:53.894Z,54.96
2019-01-12T09:03:25.416Z,53.80
2019-01-12T09:05:55.740Z,52.78
2019-01-12T09:08:26.558Z,53.78
2019-01-12T09:10:57.182Z,52.74
2019-01-12T09:13:27.443Z,53.56
2019-01-12T09:15:57.859Z,52.16
2019-01-12T09:18:28.844Z,53.10
2019-01-12T09:20:59.108Z,54.39
2019-01-12T09:23:30.314Z,52.72
2019-01-12T09:26:00.739Z,53.95
2019-01-12T09:28:31.036Z,52.52
2019-01-12T09:31:01.347Z,52.26
2019-01-12T09:33:33.453Z,51.38
2019-01-12T09:36:03.724Z,52.16
2019-01-12T09:38:34.130Z,51.77
2019-01-12T09:41:04.507Z,52.74
2019-01-12T09:43:35.468Z,51.82
2019-01-12T09:46:05.999Z,50.83
2019-01-12T09:48:37.564Z,50.96
2019-01-12T09:51:07.856Z,50.17
2019-01-12T09:53:38.630Z,50.86
2019-01-12T09:56:09.023Z,50.78
2019-01-12T09:58:39.683Z,51.04
2019-01-12T10:01:10.361Z,50.52
2019-01-12T10:03:43.033Z,49.63
2019-01-12T10:06:13.329Z,49.54
2019-01-12T10:08:43.996Z,50.97
2019-01-12T10:11:14.303Z,50.63
2019-01-12T10:13:45.400Z,49.58
2019-01-12T10:16:15.757Z,52.71
2019-01-12T10:18:47.616Z,51.37
2019-01-12T10:21:17.921Z,50.71
2019-01-12T10:23:49.243Z,49.19
2019-01-12T10:26:19.513Z,49.37
2019-01-12T10:28:49.862Z,49.80
2019-01-12T10:31:20.136Z,48.95
2019-01-12T10:33:51.566Z,49.62
2019-01-12T10:36:21.817Z,48.98
2019-01-12T10:38:52.168Z,49.38
2019-01-12T10:41:22.466Z,48.66
2019-01-12T10:43:53.372Z,48.97
2019-01-12T10:46:23.679Z,48.98
2019-01-12T10:48:54.462Z,48.66
2019-01-12T10:51:24.771Z,48.40
2019-01-12T10:53:56.382Z,48.06
2019-01-12T10:56:26.680Z,48.21
2019-01-12T10:58:57.027Z,48.29
2019-01-12T11:01:27.328Z,48.67
2019-01-12T11:04:01.373Z,49.21
2019-01-12T11:06:31.667Z,48.85
2019-01-12T11:09:02.013Z,52.26
2019-01-12T11:11:33.778Z,51.99
2019-01-12T11:14:05.187Z,51.32
2019-01-12T11:16:35.474Z,52.20
2019-01-12T11:19:07.116Z,51.76
2019-01-12T11:21:37.432Z,51.37
2019-01-12T11:24:08.451Z,50.82
2019-01-12T11:26:38.751Z,50.38
2019-01-12T11:29:09.154Z,50.09
2019-01-12T11:31:39.461Z,50.28
2019-01-12T11:34:11.882Z,50.49
2019-01-12T11:36:42.199Z,49.58
2019-01-12T11:39:12.484Z,51.48
2019-01-12T11:41:42.767Z,52.50
2019-01-12T11:44:13.521Z,51.96
2019-01-12T11:46:43.852Z,50.83
2019-01-12T11:49:14.147Z,50.43
2019-01-12T11:51:44.442Z,51.83
2019-01-12T11:54:14.748Z,53.24
2019-01-12T11:56:45.564Z,53.22
2019-01-12T11:59:15.847Z,52.42
2019-01-12T12:01:46.177Z,51.51
2019-01-12T12:04:17.332Z,50.61
2019-01-12T12:06:48.608Z,50.99
2019-01-12T12:09:19.524Z,51.67
2019-01-12T12:11:50.205Z,54.16
2019-01-12T12:14:20.499Z,54.19
2019-01-12T12:16:50.934Z,53.73
2019-01-12T12:19:22.110Z,53.96
2019-01-12T12:21:53.330Z,55.76
2019-01-12T12:24:23.623Z,54.59
2019-01-12T12:26:54.002Z,56.26
2019-01-12T12:29:24.938Z,57.59
2019-01-12T12:31:55.306Z,56.90
2019-01-12T12:34:27.305Z,55.59
2019-01-12T12:36:58.840Z,56.45
2019-01-12T12:39:29.700Z,56.20
2019-01-12T12:42:00.225Z,58.40
2019-01-12T12:44:30.533Z,56.97
2019-01-12T12:47:00.831Z,55.56
2019-01-12T12:49:31.623Z,57.08
2019-01-12T12:52:01.890Z,57.97
2019-01-12T12:54:32.272Z,60.88
2019-01-12T12:57:02.659Z,58.69
2019-01-12T12:59:32.945Z,58.00
2019-01-12T13:02:03.329Z,60.27
2019-01-12T13:04:35.548Z,58.55
2019-01-12T13:07:05.872Z,60.13
2019-01-12T13:09:36.177Z,58.88
2019-01-12T13:12:07.140Z,59.65
2019-01-12T13:14:38.033Z,59.91
2019-01-12T13:17:08.716Z,58.51
2019-01-12T13:19:39.033Z,60.49
2019-01-12T13:22:09.502Z,60.88
2019-01-12T13:24:40.314Z,58.72
2019-01-12T13:27:11.682Z,59.10
2019-01-12T13:29:42.016Z,59.77
2019-01-12T13:32:12.327Z,59.96
2019-01-12T13:34:43.123Z,60.03
2019-01-12T13:37:13.467Z,59.93
2019-01-12T13:39:43.851Z,59.87
2019-01-12T13:42:14.944Z,59.27
2019-01-12T13:44:45.759Z,61.33
2019-01-12T13:47:20.753Z,61.75
2019-01-12T13:49:48.137Z,61.37
2019-01-12T13:52:18.432Z,61.97
2019-01-12T13:54:48.757Z,61.00
2019-01-12T13:57:19.522Z,62.17
2019-01-12T13:59:51.088Z,61.17
2019-01-12T14:02:21.908Z,61.51
2019-01-12T14:04:52.582Z,60.97
2019-01-12T14:07:23.123Z,62.21
2019-01-12T14:09:54.076Z,61.45
2019-01-12T14:12:24.791Z,62.55
2019-01-12T14:14:55.095Z,62.47
2019-01-12T14:17:26.983Z,62.93
2019-01-12T14:19:57.794Z,62.14
2019-01-12T14:22:28.199Z,61.61
2019-01-12T14:25:00.826Z,62.25
2019-01-12T14:27:31.222Z,61.07
2019-01-12T14:30:02.403Z,61.30
2019-01-12T14:32:33.935Z,61.89
2019-01-12T14:35:04.643Z,60.06
2019-01-12T14:37:35.038Z,59.98
2019-01-12T14:40:07.449Z,60.65
2019-01-12T14:42:37.786Z,59.95
2019-01-12T14:45:10.760Z,58.89
2019-01-12T14:47:42.366Z,58.38
2019-01-12T14:50:13.246Z,58.79
2019-01-12T14:52:43.525Z,58.22
2019-01-12T14:55:14.604Z,56.90
2019-01-12T14:57:44.967Z,58.47
2019-01-12T15:00:18.250Z,58.47
2019-01-12T15:02:48.538Z,59.19
2019-01-12T15:05:23.185Z,58.38
2019-01-12T15:07:53.542Z,59.38
2019-01-12T15:10:24.483Z,58.65
2019-01-12T15:12:54.958Z,59.06
2019-01-12T15:15:25.674Z,59.00
2019-01-12T15:17:56.106Z,59.47
2019-01-12T15:20:32.747Z,60.07
2019-01-12T15:23:03.078Z,59.47
2019-01-12T15:25:33.513Z,59.50
2019-01-12T15:28:09.033Z,58.51
2019-01-12T15:30:36.369Z,61.33
2019-01-12T15:33:08.601Z,59.41
2019-01-12T15:35:40.540Z,59.17
2019-01-12T15:38:12.347Z,58.85
2019-01-12T15:40:43.251Z,59.72
2019-01-12T15:43:13.657Z,60.44
2019-01-12T15:45:43.955Z,60.67
2019-01-12T15:48:14.635Z,61.16
2019-01-12T15:50:45.461Z,59.34
2019-01-12T15:53:15.738Z,60.32
2019-01-12T15:55:46.675Z,59.77
2019-01-12T15:58:16.983Z,59.21
2019-01-12T16:00:47.243Z,60.15
2019-01-12T16:03:17.529Z,59.25
2019-01-12T16:05:48.862Z,59.30
2019-01-12T16:08:19.383Z,58.94
2019-01-12T16:10:49.656Z,57.91
2019-01-12T16:13:20.061Z,58.38
2019-01-12T16:15:50.799Z,58.73
2019-01-12T16:18:21.163Z,59.08
2019-01-12T16:20:51.553Z,58.72
2019-01-12T16:23:21.952Z,58.37
2019-01-12T16:25:52.756Z,58.81
2019-01-12T16:28:23.630Z,59.40
2019-01-12T16:30:53.930Z,59.27
2019-01-12T16:33:24.333Z,58.31
2019-01-12T16:35:55.192Z,57.18
2019-01-12T16:38:25.598Z,58.86
2019-01-12T16:40:55.884Z,57.51
2019-01-12T16:43:26.947Z,61.40
2019-01-12T16:45:57.726Z,60.12
2019-01-12T16:48:28.146Z,58.68
2019-01-12T16:50:58.435Z,58.74
2019-01-12T16:53:28.711Z,58.15
2019-01-12T16:55:59.517Z,58.00
2019-01-12T16:58:30.714Z,58.12
2019-01-12T17:01:02.499Z,57.87
2019-01-12T17:03:32.775Z,57.40
2019-01-12T17:06:04.238Z,58.07
2019-01-12T17:08:34.545Z,56.97
2019-01-12T17:11:04.939Z,56.14
2019-01-12T17:13:35.199Z,56.44
2019-01-12T17:16:08.656Z,56.13
2019-01-12T17:18:39.888Z,56.44
2019-01-12T17:21:10.177Z,55.61
2019-01-12T17:23:40.457Z,55.82
2019-01-12T17:26:11.243Z,55.01
2019-01-12T17:28:41.596Z,55.57
2019-01-12T17:31:12.458Z,55.87
2019-01-12T17:33:42.777Z,54.89
2019-01-12T17:36:13.743Z,55.02
2019-01-12T17:38:44.086Z,55.18
2019-01-12T17:41:14.461Z,54.34
2019-01-12T17:43:44.888Z,55.78
2019-01-12T17:46:15.692Z,54.36
2019-01-12T17:48:46.587Z,54.70
2019-01-12T17:51:16.911Z,56.23
2019-01-12T17:53:47.313Z,55.58
2019-01-12T17:56:18.065Z,54.95
2019-01-12T17:58:49.544Z,54.92
2019-01-12T18:01:20.823Z,54.52
2019-01-12T18:03:52.427Z,54.04
2019-01-12T18:06:24.501Z,54.62
2019-01-12T18:08:55.234Z,54.86
2019-01-12T18:11:25.554Z,54.33
2019-01-12T18:13:55.875Z,55.96
2019-01-12T18:16:26.719Z,55.03
2019-01-12T18:18:57.886Z,56.04
2019-01-12T18:21:28.198Z,54.67
2019-01-12T18:23:58.490Z,55.93
2019-01-12T18:26:29.274Z,55.78
2019-01-12T18:28:59.600Z,55.20
2019-01-12T18:31:29.952Z,54.37
2019-01-12T18:34:00.309Z,54.69
2019-01-12T18:36:32.504Z,55.27
2019-01-12T18:39:02.971Z,56.24
2019-01-12T18:41:33.430Z,55.62
2019-01-12T18:44:03.910Z,55.82
2019-01-12T18:46:35.140Z,56.53
2019-01-12T18:49:05.443Z,56.61
2019-01-12T18:51:37.224Z,56.60
2019-01-12T18:54:07.633Z,57.48
2019-01-12T18:56:38.501Z,57.00
2019-01-12T18:59:08.755Z,57.26
2019-01-12T19:01:39.162Z,57.64
2019-01-12T19:04:09.467Z,57.69
2019-01-12T19:06:41.504Z,57.99
2019-01-12T19:09:11.800Z,58.45
2019-01-12T19:11:42.491Z,58.06
2019-01-12T19:14:12.794Z,58.24
2019-01-12T19:16:43.660Z,58.25
2019-01-12T19:19:13.956Z,59.14
2019-01-12T19:21:45.453Z,58.35
2019-01-12T19:24:15.729Z,58.27
2019-01-12T19:26:47.010Z,58.05
2019-01-12T19:29:17.291Z,58.82
2019-01-12T19:31:47.585Z,58.56
2019-01-12T19:34:18.228Z,59.29
2019-01-12T19:36:49.067Z,59.01
2019-01-12T19:39:20.787Z,60.13
2019-01-12T19:41:51.830Z,59.42
2019-01-12T19:44:22.135Z,58.49
2019-01-12T19:46:52.901Z,58.10
2019-01-12T19:49:23.319Z,57.92
2019-01-12T19:51:53.601Z,57.25
2019-01-12T19:54:23.891Z,57.31
2019-01-12T19:56:54.744Z,57.33
2019-01-12T19:59:25.514Z,57.84
2019-01-12T20:01:55.789Z,56.40
2019-01-12T20:04:26.361Z,56.88
2019-01-12T20:06:57.324Z,57.38
2019-01-12T20:09:27.644Z,57.30
2019-01-12T20:11:58.507Z,57.74
2019-01-12T20:14:28.813Z,57.51
2019-01-12T20:16:59.088Z,56.92
2019-01-12T20:19:29.489Z,57.37
2019-01-12T20:21:59.814Z,56.57
2019-01-12T20:24:30.651Z,56.71
2019-01-12T20:27:01.073Z,56.08
2019-01-12T20:29:31.382Z,55.98
2019-01-12T20:32:30.133Z,55.36
2019-01-12T20:35:25.240Z,56.32
2019-01-12T20:38:22.503Z,56.37
2019-01-12T20:41:41.224Z,56.40
2019-01-12T20:44:58.625Z,57.33
2019-01-12T20:47:57.144Z,57.05
2019-01-12T20:51:11.005Z,56.43
2019-01-12T20:54:29.442Z,56.44
2019-01-12T20:57:20.165Z,56.23
2019-01-12T21:00:37.272Z,55.36
2019-01-12T21:03:40.913Z,55.61
2019-01-12T21:06:46.298Z,55.39
2019-01-12T21:09:39.175Z,54.78
2019-01-12T21:12:43.730Z,54.96
2019-01-12T21:15:38.311Z,56.47
2019-01-12T21:18:09.401Z,54.90
2019-01-12T21:20:39.716Z,55.45
2019-01-12T21:23:10.508Z,55.04
2019-01-12T21:25:43.189Z,54.78
2019-01-12T21:28:13.486Z,54.67
2019-01-12T21:30:43.784Z,55.08
2019-01-12T21:33:14.564Z,55.10
2019-01-12T21:35:45.005Z,55.16
2019-01-12T21:38:15.281Z,54.95
2019-01-12T21:40:48.139Z,54.97
2019-01-12T21:43:18.951Z,54.77
2019-01-12T21:45:49.690Z,55.60
2019-01-12T21:48:20.031Z,54.77
2019-01-12T21:50:50.361Z,54.51
2019-01-12T21:53:21.199Z,54.83
2019-01-12T21:55:52.809Z,54.47
2019-01-12T21:58:23.231Z,54.66
2019-01-12T22:00:53.534Z,54.27
2019-01-12T22:03:24.345Z,54.62
2019-01-12T22:05:54.733Z,54.48
2019-01-12T22:08:25.084Z,54.92
2019-01-12T22:10:56.615Z,54.06
2019-01-12T22:13:27.803Z,54.36
2019-01-12T22:15:58.109Z,54.42
2019-01-12T22:18:28.506Z,54.23
2019-01-12T22:20:59.269Z,54.77
2019-01-12T22:23:30.105Z,55.11
2019-01-12T22:26:00.441Z,55.71
2019-01-12T22:28:30.766Z,54.88
2019-01-12T22:31:01.531Z,54.91
2019-01-12T22:33:32.326Z,54.69
2019-01-12T22:36:02.718Z,54.49
2019-01-12T22:38:33.191Z,54.75
2019-01-12T22:41:03.638Z,54.61
2019-01-12T22:43:34.536Z,54.75
2019-01-12T22:46:05.742Z,54.10
2019-01-12T22:48:36.040Z,53.72
2019-01-12T22:51:07.912Z,53.45
2019-01-12T22:53:38.655Z,54.08
2019-01-12T22:56:09.053Z,54.54
2019-01-12T22:58:39.352Z,54.56
2019-01-12T23:01:35.040Z,54.45
2019-01-12T23:04:05.717Z,54.59
2019-01-12T23:06:36.696Z,54.36
2019-01-12T23:09:11.164Z,54.29
2019-01-12T23:11:42.356Z,53.83
2019-01-12T23:14:13.639Z,54.25
2019-01-12T23:16:45.560Z,54.28
2019-01-12T23:19:16.023Z,53.76
2019-01-12T23:21:46.380Z,54.14
2019-01-12T23:24:16.748Z,54.79
2019-01-12T23:26:47.751Z,55.34
2019-01-12T23:29:18.154Z,54.42
2019-01-12T23:31:48.456Z,53.96
2019-01-12T23:34:19.779Z,54.22
2019-01-12T23:36:50.618Z,54.24
2019-01-12T23:39:20.971Z,54.39
2019-01-12T23:41:51.347Z,54.77
2019-01-12T23:44:21.662Z,54.50
2019-01-12T23:46:52.101Z,54.25
2019-01-12T23:49:22.967Z,54.26
2019-01-12T23:51:53.270Z,54.35
2019-01-12T23:54:24.386Z,54.16
2019-01-12T23:56:54.664Z,53.90
2019-01-12T23:59:24.956Z,54.44
